Time;durP1;ratioP1;P1;durP2;ratioP2;P2;SDS_P1;SDS_P2;PMS_P1;PMS_P2;Temp;Humidity;BMP_temperature;BMP_pressure;BME280_temperature;BME280_humidity;BME280_pressure;Samples;Min_cycle;Max_cycle;Signal;HPM_P1;HPM_P2
2022/11/03 00:00:58;;;;;;;16.97;9.97;;;4.80;99.90;;;4.63;89.65;98513.13;4981327;28;20464;-70
2022/11/03 00:03:27;;;;;;;15.87;8.80;;;4.80;99.90;;;4.72;88.81;98519.31;4988458;28;20953;-72
2022/11/03 00:06:07;;;;;;;13.90;8.73;;;4.80;99.90;;;4.74;88.41;98507.41;4979082;28;20487;-70
2022/11/03 00:08:37;;;;;;;13.40;8.77;;;4.80;99.90;;;4.72;88.84;98514.78;4975244;28;20463;-71
2022/11/03 00:11:08;;;;;;;14.13;8.10;;;4.80;99.90;;;4.69;89.35;98520.47;4969736;28;20472;-71
2022/11/03 00:13:36;;;;;;;13.07;8.23;;;4.80;99.90;;;4.35;88.87;98459.88;4971040;28;20460;-71
2022/11/03 00:16:04;;;;;;;10.13;7.80;;;4.80;99.90;;;4.68;89.42;98502.75;4969129;28;20515;-72
2022/11/03 00:18:33;;;;;;;13.33;8.93;;;4.80;99.90;;;4.69;89.53;98504.41;4991114;28;21019;-71
2022/11/03 00:21:02;;;;;;;12.20;8.33;;;4.90;99.90;;;4.67;88.53;98491.19;4981654;28;20956;-71
2022/11/03 00:23:32;;;;;;;12.77;7.60;;;4.90;99.90;;;4.64;89.38;98501.41;4976823;28;20971;-69
2022/11/03 00:26:08;;;;;;;14.13;8.70;;;4.90;99.90;;;4.53;89.29;98478.44;4990913;28;20480;-71
2022/11/03 00:28:37;;;;;;;18.17;8.83;;;4.90;99.90;;;4.59;89.34;98493.00;4984275;28;20985;-71
2022/11/03 00:31:08;;;;;;;13.37;8.40;;;4.90;99.90;;;4.64;89.46;98496.06;4984757;28;20551;-69
2022/11/03 00:33:38;;;;;;;18.67;8.00;;;4.90;99.90;;;4.62;89.07;98500.72;4970842;28;20456;-70
2022/11/03 00:36:07;;;;;;;13.20;8.50;;;4.90;99.90;;;4.62;89.30;98490.84;4991871;28;20459;-70
2022/11/03 00:38:36;;;;;;;13.63;7.90;;;4.90;99.90;;;4.60;88.95;98482.16;4992958;28;20460;-70
2022/11/03 00:41:05;;;;;;;13.97;8.20;;;4.80;99.90;;;4.66;89.49;98488.69;4990960;28;20448;-70
2022/11/03 00:43:34;;;;;;;19.03;8.70;;;4.80;99.90;;;4.54;89.26;98497.03;4986599;28;20479;-71
2022/11/03 00:46:02;;;;;;;12.80;7.57;;;4.70;99.90;;;4.57;89.45;98470.94;4964941;28;20526;-71
2022/11/03 00:48:29;;;;;;;13.27;8.63;;;4.80;99.90;;;4.49;89.45;98469.94;4992445;28;20526;-73
2022/11/03 00:51:03;;;;;;;9.80;8.07;;;4.70;99.90;;;4.58;90.17;98469.94;4964031;28;20463;-70
2022/11/03 00:53:32;;;;;;;13.60;8.40;;;4.70;99.90;;;4.51;89.66;98467.94;4986293;28;20536;-71
2022/11/03 00:56:00;;;;;;;12.67;7.90;;;4.80;99.90;;;4.49;89.49;98461.06;4972846;28;20455;-70
2022/11/03 00:58:28;;;;;;;10.80;7.70;;;4.80;99.90;;;4.38;89.45;98443.50;4986858;28;20497;-71
2022/11/03 01:01:03;;;;;;;13.83;8.17;;;4.80;99.90;;;4.56;89.13;98471.94;4973834;28;20460;-70
2022/11/03 01:03:33;;;;;;;16.70;8.23;;;4.70;99.90;;;4.38;89.92;98464.91;4990186;28;20526;-70
2022/11/03 01:08:47;;;;;;;10.50;8.00;;;4.60;99.90;;;4.47;89.71;98463.88;4971720;28;20483;-69
2022/11/03 01:14:03;;;;;;;11.20;8.43;;;4.70;99.90;;;4.56;89.25;98456.72;4987990;28;20455;-70
2022/11/03 01:16:31;;;;;;;11.80;8.40;;;4.60;99.90;;;4.43;89.00;98435.78;4976093;28;20514;-70
2022/11/03 01:18:59;;;;;;;14.93;8.37;;;4.70;99.90;;;4.58;89.07;98445.84;4982927;28;21020;-71
2022/11/03 01:21:28;;;;;;;9.73;7.20;;;4.70;99.90;;;4.53;89.37;98441.84;4971713;28;21049;-70
2022/11/03 01:23:55;;;;;;;10.10;8.10;;;4.70;99.90;;;4.43;89.38;98441.16;4986447;28;20519;-71
2022/11/03 01:26:22;;;;;;;16.60;8.00;;;4.70;99.90;;;4.41;89.27;98436.97;4984472;28;20525;-70
2022/11/03 01:28:50;;;;;;;12.10;7.50;;;4.70;99.90;;;4.42;89.25;98430.63;4969163;28;20462;-70
2022/11/03 01:31:20;;;;;;;15.77;7.17;;;4.70;99.90;;;4.48;88.54;98433.47;4972096;28;20601;-71
2022/11/03 01:33:50;;;;;;;9.80;6.70;;;4.60;99.90;;;4.44;88.70;98432.13;4988435;28;20499;-70
2022/11/03 01:36:18;;;;;;;15.87;7.63;;;4.60;99.90;;;4.30;89.27;98411.38;4976700;28;20452;-69
2022/11/03 01:38:47;;;;;;;11.53;7.37;;;4.60;99.90;;;4.44;89.19;98424.09;4975538;28;20468;-70
2022/11/03 01:41:21;;;;;;;14.67;7.43;;;4.60;99.90;;;4.37;89.05;98423.09;4966113;28;20559;-71
2022/11/03 01:44:23;;;;;;;15.07;7.83;;;4.50;99.90;;;3.87;88.48;98356.16;4979365;28;20493;-71
2022/11/03 01:46:57;;;;;;;7.67;6.87;;;4.50;99.90;;;4.29;88.93;98413.22;4983067;28;20480;-71
2022/11/03 01:49:32;;;;;;;15.13;7.67;;;4.40;99.90;;;4.22;88.69;98404.16;4980604;28;20470;-73
2022/11/03 01:52:07;;;;;;;9.73;7.20;;;4.30;99.90;;;4.25;88.80;98411.88;4978373;28;20515;-71
2022/11/03 01:54:38;;;;;;;10.00;7.07;;;4.30;99.90;;;3.93;89.88;98392.91;4982889;28;20533;-71
2022/11/03 01:57:12;;;;;;;10.47;6.70;;;4.10;99.90;;;4.02;89.75;98390.25;4986536;28;20514;-71
2022/11/03 01:59:40;;;;;;;15.57;7.80;;;4.10;99.90;;;4.09;89.75;98401.97;4970894;28;20539;-70
2022/11/03 02:02:07;;;;;;;10.83;7.10;;;4.10;99.90;;;4.09;89.88;98396.63;4981561;28;20479;-71
2022/11/03 02:04:35;;;;;;;9.17;6.90;;;4.10;99.90;;;4.21;89.04;98399.81;4970616;28;20895;-72
2022/11/03 02:07:15;;;;;;;11.73;7.20;;;4.20;99.90;;;4.14;89.77;98394.28;4980482;28;20468;-70
2022/11/03 02:09:44;;;;;;;12.30;6.90;;;4.10;99.90;;;4.11;90.51;98394.63;4980121;28;21239;-71
2022/11/03 02:12:12;;;;;;;8.03;7.00;;;4.20;99.90;;;4.01;90.18;98388.59;4989653;28;20464;-71
2022/11/03 02:14:45;;;;;;;16.63;9.37;;;4.10;99.90;;;4.11;90.63;98386.59;4987797;28;20468;-71
2022/11/03 02:17:13;;;;;;;10.67;8.10;;;4.30;99.90;;;4.25;90.73;98393.16;4982453;28;20464;-71
2022/11/03 02:19:45;;;;;;;13.33;7.87;;;4.30;99.90;;;4.12;90.96;98385.59;4963171;28;20467;-71
2022/11/03 02:22:56;;;;;;;10.20;7.70;;;4.40;99.90;;;4.17;90.66;98377.94;4986059;28;20459;-70
2022/11/03 02:25:45;;;;;;;9.63;7.57;;;4.40;99.90;;;4.21;90.47;98371.25;4959502;28;20573;-71
2022/11/03 02:28:16;;;;;;;14.57;7.00;;;4.40;99.90;;;4.18;91.11;98362.72;4977216;28;21137;-71
2022/11/03 02:30:51;;;;;;;13.07;7.20;;;4.40;99.90;;;4.29;89.76;98359.72;4967358;28;20464;-72
2022/11/03 02:33:31;;;;;;;8.07;7.13;;;4.40;99.90;;;4.14;90.11;98345.34;4967573;28;20467;-70
2022/11/03 02:36:08;;;;;;;9.93;6.93;;;4.40;99.90;;;4.10;90.50;98355.50;4978978;28;20556;-72
2022/11/03 02:38:43;;;;;;;10.30;6.93;;;4.40;99.90;;;4.13;91.00;98373.06;4978591;28;20467;-71
2022/11/03 02:41:14;;;;;;;10.87;7.33;;;4.40;99.90;;;4.11;90.92;98359.84;4979913;28;20615;-70
2022/11/03 02:43:44;;;;;;;14.37;7.20;;;4.40;99.90;;;4.19;91.23;98346.50;4961487;28;20572;-70
2022/11/03 02:46:13;;;;;;;11.70;7.80;;;4.40;99.90;;;4.18;90.56;98357.34;4969602;28;20554;-71
2022/11/03 02:48:41;;;;;;;8.00;7.20;;;4.40;99.90;;;4.21;90.18;98357.03;4983380;28;20952;-72
2022/11/03 02:51:08;;;;;;;15.17;7.40;;;4.30;99.90;;;4.14;90.55;98348.81;4961523;28;20817;-72
2022/11/03 02:53:43;;;;;;;9.97;7.40;;;4.30;99.90;;;4.09;90.29;98337.81;4991364;28;20452;-70
2022/11/03 02:56:17;;;;;;;9.53;7.13;;;4.30;99.90;;;4.06;90.58;98343.47;4980294;28;20494;-73
2022/11/03 02:58:51;;;;;;;11.10;7.33;;;4.20;99.90;;;4.05;90.77;98341.81;4977227;28;20464;-72
2022/11/03 03:01:27;;;;;;;10.77;6.97;;;4.20;99.90;;;4.04;91.36;98326.78;4984832;28;20475;-71
2022/11/03 03:03:58;;;;;;;9.60;6.70;;;4.30;99.90;;;4.00;91.51;98322.75;4979714;28;20530;-71
2022/11/03 03:06:30;;;;;;;11.57;7.83;;;4.30;99.90;;;4.01;91.45;98309.22;4977980;28;20526;-72
2022/11/03 03:09:03;;;;;;;9.33;7.50;;;4.40;99.90;;;3.96;91.48;98307.03;4986010;28;20472;-70
2022/11/03 03:11:37;;;;;;;13.67;7.93;;;4.30;99.90;;;4.04;91.48;98321.44;4979224;28;20464;-71
2022/11/03 03:14:10;;;;;;;11.00;7.47;;;4.30;99.90;;;4.06;91.18;98319.41;4960649;28;20464;-72
2022/11/03 03:16:50;;;;;;;27.60;8.57;;;4.30;99.90;;;4.04;91.33;98314.22;4970202;28;20461;-73
2022/11/03 03:19:37;;;;;;;12.47;8.03;;;4.30;99.90;;;4.00;91.54;98306.69;4976481;28;20469;-72
2022/11/03 03:22:15;;;;;;;9.53;7.10;;;4.30;99.90;;;4.12;91.55;98305.38;4979103;28;20463;-70
2022/11/03 03:24:52;;;;;;;16.63;8.97;;;4.30;99.90;;;4.09;91.54;98300.38;4977261;28;20510;-71
2022/11/03 03:27:25;;;;;;;10.50;7.93;;;4.30;99.90;;;4.06;91.85;98300.69;4992258;28;20466;-71
2022/11/03 03:29:57;;;;;;;11.20;7.53;;;4.30;99.90;;;3.63;92.09;98229.50;4975257;28;20456;-72
2022/11/03 03:32:28;;;;;;;11.33;8.20;;;4.20;99.90;;;4.08;91.82;98293.34;4971044;28;20945;-70
2022/11/03 03:34:56;;;;;;;13.90;8.47;;;4.30;99.90;;;4.02;91.83;98296.66;4989703;28;20451;-71
2022/11/03 03:37:26;;;;;;;8.97;7.67;;;4.30;99.90;;;4.03;92.35;98298.38;4972931;28;20465;-70
2022/11/03 03:39:59;;;;;;;14.07;7.90;;;4.30;99.90;;;3.94;93.16;98289.47;4980606;28;20463;-71
2022/11/03 03:42:30;;;;;;;14.67;8.30;;;4.30;99.90;;;4.00;93.16;98287.97;4979713;28;20465;-71
2022/11/03 03:44:59;;;;;;;15.90;8.97;;;4.30;99.90;;;3.94;92.03;98284.97;4978859;28;20848;-71
2022/11/03 03:47:30;;;;;;;13.90;7.90;;;4.20;99.90;;;4.02;91.49;98289.50;4966528;28;20460;-70
2022/11/03 03:49:58;;;;;;;8.40;7.43;;;4.20;99.90;;;3.86;92.50;98284.13;4988704;28;20466;-70
2022/11/03 03:52:27;;;;;;;15.70;7.83;;;4.20;99.90;;;3.86;92.29;98274.25;4982540;28;20475;-70
2022/11/03 03:54:55;;;;;;;11.93;8.90;;;4.20;99.90;;;3.95;92.15;98277.81;4982445;28;20463;-70
2022/11/03 03:57:27;;;;;;;14.13;8.20;;;4.20;99.90;;;3.95;91.98;98272.47;4984740;28;20507;-71
2022/11/03 03:59:54;;;;;;;19.20;8.50;;;4.20;99.90;;;3.87;92.19;98275.97;4969774;28;21209;-71
2022/11/03 04:02:22;;;;;;;9.63;7.73;;;4.10;99.90;;;3.87;91.64;98269.78;4971153;28;20471;-71
2022/11/03 04:04:49;;;;;;;13.90;8.10;;;4.10;99.90;;;3.76;91.50;98247.69;4983936;28;20491;-72
2022/11/03 04:10:01;;;;;;;18.53;8.17;;;4.10;99.90;;;3.90;91.14;98270.28;4984738;28;20546;-68
2022/11/03 04:23:37;;;;;;;9.90;7.20;;;3.90;99.90;;;3.75;91.94;98255.91;4975004;28;20465;-68
2022/11/03 04:26:11;;;;;;;14.10;7.67;;;3.90;99.90;;;3.74;91.77;98260.41;4982410;28;20471;-69
2022/11/03 04:28:41;;;;;;;13.90;7.30;;;3.90;99.90;;;3.75;92.20;98255.91;4983867;28;20471;-68
2022/11/03 04:31:11;;;;;;;13.60;8.20;;;3.90;99.90;;;3.80;92.22;98250.88;4987807;28;21037;-67
2022/11/03 04:33:40;;;;;;;9.63;7.20;;;3.90;99.90;;;3.80;92.61;98256.22;4984924;28;20532;-68
2022/11/03 04:36:15;;;;;;;8.47;6.90;;;3.90;99.90;;;3.86;92.76;98247.53;4968123;28;20471;-69
2022/11/03 04:38:43;;;;;;;20.83;9.50;;;3.90;99.90;;;3.86;92.56;98238.69;4987041;28;20517;-68
2022/11/03 04:41:17;;;;;;;9.33;8.23;;;4.00;99.90;;;3.83;93.56;98232.69;4990535;28;20459;-68
2022/11/03 04:43:46;;;;;;;11.37;7.20;;;4.10;99.90;;;3.91;93.71;98231.00;4960139;28;20689;-67
2022/11/03 04:46:17;;;;;;;12.80;8.50;;;4.10;99.90;;;3.93;93.17;98231.66;4984115;28;20555;-67
2022/11/03 04:48:46;;;;;;;9.47;7.53;;;4.20;99.90;;;4.00;92.41;98237.19;4989374;28;20467;-68
2022/11/03 04:51:17;;;;;;;9.93;7.80;;;4.20;99.90;;;4.08;92.14;98239.84;4966077;28;20470;-68
2022/11/03 04:53:52;;;;;;;15.03;7.80;;;4.30;99.90;;;4.10;91.73;98237.84;4973888;28;20516;-68
2022/11/03 04:56:22;;;;;;;12.33;8.57;;;4.20;99.90;;;4.02;91.67;98228.00;4963312;28;20806;-68
2022/11/03 04:58:52;;;;;;;10.50;8.37;;;4.30;99.90;;;4.00;92.85;98224.66;4985905;28;20475;-68
2022/11/03 05:01:22;;;;;;;9.63;8.33;;;4.20;99.90;;;3.94;92.98;98217.28;4971380;28;20455;-69
2022/11/03 05:03:52;;;;;;;10.10;7.93;;;4.20;99.90;;;3.93;93.58;98216.47;4971936;28;20519;-68
2022/11/03 05:06:22;;;;;;;19.80;8.30;;;4.10;99.90;;;3.94;93.46;98203.91;4971434;28;20488;-68
2022/11/03 05:08:53;;;;;;;9.97;8.20;;;4.20;99.90;;;4.01;93.13;98201.41;4984706;28;20474;-68
2022/11/03 05:11:30;;;;;;;13.90;8.73;;;4.20;99.90;;;3.87;93.00;98190.44;4986119;28;20973;-68
2022/11/03 05:14:03;;;;;;;14.30;8.63;;;4.20;99.90;;;3.84;93.11;98180.03;4970366;28;20472;-68
2022/11/03 05:16:31;;;;;;;14.60;8.93;;;4.20;99.90;;;3.99;93.32;98198.06;4961123;28;20473;-69
2022/11/03 05:18:59;;;;;;;14.90;9.50;;;4.20;99.90;;;3.85;93.52;98176.38;4975573;28;20469;-69
2022/11/03 05:21:28;;;;;;;17.77;8.80;;;4.30;99.90;;;4.02;92.88;98200.41;4969901;28;20468;-69
2022/11/03 05:24:02;;;;;;;13.57;9.90;;;4.30;99.90;;;4.04;92.59;98196.56;4977521;28;20543;-70
2022/11/03 05:26:34;;;;;;;14.80;9.00;;;4.30;99.90;;;3.95;92.45;98171.69;4977648;28;21144;-68
2022/11/03 05:29:04;;;;;;;17.20;9.53;;;4.20;99.90;;;4.00;92.77;98175.69;4966080;28;20469;-69
2022/11/03 05:31:34;;;;;;;17.00;10.03;;;4.20;99.90;;;3.91;93.31;98181.06;4971439;28;20478;-70
2022/11/03 05:34:16;;;;;;;16.57;8.90;;;4.20;99.90;;;4.02;93.41;98179.00;4986356;28;20460;-68
2022/11/03 05:36:43;;;;;;;13.87;9.60;;;4.20;99.90;;;3.93;93.68;98168.34;4966658;28;20502;-69
2022/11/03 05:39:28;;;;;;;14.83;9.33;;;4.20;99.90;;;3.86;93.78;98164.66;4983320;28;20466;-67
2022/11/03 05:41:56;;;;;;;14.00;9.97;;;4.20;99.90;;;3.89;93.63;98151.00;4969645;28;20449;-68
2022/11/03 05:44:35;;;;;;;16.30;10.60;;;4.20;99.90;;;4.03;93.25;98151.31;4990700;28;20479;-68
2022/11/03 05:47:09;;;;;;;13.33;9.60;;;4.20;99.90;;;3.94;93.56;98153.97;4990583;28;20472;-69
2022/11/03 05:49:36;;;;;;;14.80;9.87;;;4.20;99.90;;;4.07;93.71;98148.09;4990087;28;20547;-67
2022/11/03 05:52:04;;;;;;;14.60;10.70;;;4.20;99.90;;;4.03;94.09;98151.31;4981972;28;20463;-69
2022/11/03 05:54:34;;;;;;;17.30;10.50;;;4.20;99.90;;;3.98;94.21;98154.47;4984615;28;20553;-69
2022/11/03 05:57:01;;;;;;;14.03;10.53;;;4.20;99.90;;;3.90;94.30;98147.31;4977526;28;20499;-67
2022/11/03 05:59:30;;;;;;;13.13;10.40;;;4.20;99.90;;;3.93;94.50;98136.28;4984512;28;20981;-69
2022/11/03 06:02:00;;;;;;;14.87;10.90;;;4.10;99.90;;;3.69;94.30;98124.59;4985977;28;20617;-68
2022/11/03 06:04:33;;;;;;;15.60;12.17;;;4.10;99.90;;;3.83;94.08;98132.94;4986469;28;20986;-68
2022/11/03 06:07:03;;;;;;;16.07;11.67;;;4.10;99.90;;;3.65;95.05;98136.63;4980788;28;20464;-69
2022/11/03 06:09:33;;;;;;;18.17;11.87;;;4.00;99.90;;;3.56;95.85;98110.91;4981833;28;20464;-68
2022/11/03 06:12:02;;;;;;;16.43;11.37;;;4.00;99.90;;;3.72;94.80;98107.41;4981634;28;20461;-68
2022/11/03 06:14:32;;;;;;;16.67;12.53;;;4.10;99.90;;;3.86;95.63;98119.22;4984187;28;20964;-68
2022/11/03 06:17:04;;;;;;;17.77;11.87;;;4.10;99.90;;;3.67;94.55;98083.03;4981668;28;21012;-70
2022/11/03 06:19:35;;;;;;;14.80;10.50;;;4.20;99.90;;;3.79;94.19;98110.22;4960538;28;20541;-68
2022/11/03 06:22:13;;;;;;;16.90;11.57;;;4.10;99.90;;;3.99;94.24;98121.38;4959603;28;20455;-68
2022/11/03 06:24:41;;;;;;;17.37;12.10;;;4.20;99.90;;;3.96;94.83;98127.91;4970463;28;20493;-67
2022/11/03 06:27:12;;;;;;;15.07;10.70;;;4.10;99.90;;;4.08;93.91;98119.53;4981351;28;20472;-66
2022/11/03 06:29:41;;;;;;;16.67;11.20;;;4.20;99.90;;;4.20;94.57;98136.88;4978575;28;20472;-68
2022/11/03 06:32:13;;;;;;;17.03;11.27;;;4.30;99.90;;;4.33;94.03;98135.50;4980937;28;21001;-67
2022/11/03 06:34:44;;;;;;;17.27;11.60;;;4.40;99.90;;;4.28;92.87;98127.16;4958200;28;20542;-66
2022/11/03 06:37:20;;;;;;;13.37;10.10;;;4.40;99.90;;;4.37;93.23;98134.16;4982087;28;20470;-67
2022/11/03 06:39:49;;;;;;;16.80;10.70;;;4.50;99.90;;;4.41;92.58;98127.44;4980431;28;20464;-67
2022/11/03 06:42:20;;;;;;;14.07;10.33;;;4.50;99.90;;;4.42;93.33;98123.75;4980228;28;20486;-68
2022/11/03 06:44:51;;;;;;;18.43;11.07;;;4.50;99.90;;;4.50;92.69;98126.41;4961863;28;20468;-68
2022/11/03 06:47:23;;;;;;;13.97;10.87;;;4.60;99.90;;;4.60;91.87;98125.34;4985520;28;20465;-67
2022/11/03 06:49:52;;;;;;;14.23;10.10;;;4.60;99.90;;;4.63;92.43;98125.03;4980555;28;20455;-67
2022/11/03 06:52:30;;;;;;;16.90;9.90;;;4.60;99.90;;;4.73;92.59;98119.44;4965577;28;20460;-67
2022/11/03 06:55:22;;;;;;;13.63;11.43;;;4.70;99.90;;;4.78;92.02;98117.91;4965524;28;20489;-67
2022/11/03 06:57:54;;;;;;;17.40;11.50;;;4.70;99.90;;;4.87;92.94;98124.06;4960000;28;20467;-67
2022/11/03 07:00:27;;;;;;;13.93;10.77;;;4.80;99.90;;;4.93;92.25;98120.66;4980810;28;20964;-68
2022/11/03 07:03:01;;;;;;;15.57;11.00;;;4.90;99.90;;;5.00;92.18;98115.44;4976893;28;20506;-67
2022/11/03 07:05:29;;;;;;;16.07;11.60;;;5.00;99.90;;;5.12;91.78;98112.34;4980781;28;20483;-67
2022/11/03 07:08:00;;;;;;;12.87;10.30;;;5.10;99.90;;;5.25;91.23;98117.97;4984144;28;20502;-66
2022/11/03 07:10:29;;;;;;;17.00;11.97;;;5.30;99.90;;;5.10;92.13;98099.13;4982790;28;20833;-67
2022/11/03 07:13:01;;;;;;;15.77;10.77;;;5.30;99.90;;;5.29;90.82;98108.53;4980875;28;20459;-68
2022/11/03 07:15:33;;;;;;;13.53;11.27;;;5.40;99.90;;;5.43;91.58;98101.56;4980481;28;20503;-73
2022/11/03 07:18:02;;;;;;;17.03;13.10;;;5.40;99.90;;;5.56;90.56;98105.47;4983548;28;20456;-71
2022/11/03 07:20:32;;;;;;;14.07;11.30;;;5.50;99.90;;;5.53;90.97;98103.97;4987637;28;20460;-66
2022/11/03 07:23:02;;;;;;;16.33;11.23;;;5.50;99.90;;;5.53;91.06;98098.63;4985007;28;20582;-67
2022/11/03 07:25:29;;;;;;;16.20;11.10;;;5.60;99.90;;;5.51;90.59;98093.47;4982056;28;20487;-67
2022/11/03 07:27:57;;;;;;;17.97;12.27;;;5.60;99.90;;;5.67;91.22;98089.78;4968902;28;21014;-68
2022/11/03 07:30:31;;;;;;;14.80;11.57;;;5.70;99.90;;;5.74;90.90;98089.88;4986636;28;20986;-66
2022/11/03 07:33:10;;;;;;;16.17;11.33;;;5.80;99.90;;;5.87;89.81;98094.63;4968906;28;20467;-69
2022/11/03 07:35:41;;;;;;;16.47;12.27;;;5.90;99.90;;;5.96;89.58;98093.53;4977963;28;20456;-67
2022/11/03 07:38:14;;;;;;;13.87;11.27;;;6.00;99.90;;;6.16;90.12;98078.75;4983485;28;20470;-71
2022/11/03 07:40:42;;;;;;;14.67;11.27;;;6.10;99.90;;;6.12;89.19;98074.78;4965336;28;20483;-67
2022/11/03 07:43:17;;;;;;;14.63;11.10;;;6.20;99.90;;;6.18;88.62;98052.56;4961815;28;20708;-68
2022/11/03 07:45:49;;;;;;;11.83;10.33;;;6.30;99.90;;;6.26;89.13;98065.06;4982655;28;20487;-67
2022/11/03 07:48:23;;;;;;;14.70;10.43;;;6.30;99.90;;;6.28;88.57;98068.38;4983670;28;20616;-67
2022/11/03 07:50:53;;;;;;;12.13;10.07;;;6.40;99.90;;;6.36;89.14;98060.25;4984934;28;20452;-68
2022/11/03 07:53:28;;;;;;;12.93;10.70;;;6.40;99.90;;;6.14;88.45;98001.16;4958713;28;20471;-67
2022/11/03 07:55:56;;;;;;;17.40;11.00;;;6.60;99.90;;;6.70;88.20;98045.34;4981148;28;20457;-67
2022/11/03 07:58:35;;;;;;;12.73;10.67;;;6.70;99.90;;;6.90;87.54;98047.41;4981100;28;20996;-66
2022/11/03 08:01:23;;;;;;;13.37;10.57;;;6.80;99.90;;;7.15;86.26;98041.66;4986147;28;20546;-67
2022/11/03 08:03:51;;;;;;;18.70;9.80;;;7.00;99.90;;;7.22;85.02;98034.50;4979870;28;20504;-67
2022/11/03 08:06:20;;;;;;;9.80;8.80;;;7.10;97.60;;;7.20;84.38;98023.09;4982448;28;20479;-70
2022/11/03 08:08:48;;;;;;;11.60;9.00;;;7.20;95.90;;;7.24;84.79;98019.03;4969034;28;20461;-67
2022/11/03 08:11:15;;;;;;;15.23;9.87;;;7.30;96.30;;;7.07;85.18;98008.56;4964452;28;21087;-68
2022/11/03 08:13:42;;;;;;;14.37;10.10;;;7.20;95.50;;;7.10;85.25;98007.31;4966646;28;20465;-67
2022/11/03 08:16:11;;;;;;;12.00;9.00;;;7.30;95.20;;;7.23;85.14;98001.25;4984985;28;20458;-68
2022/11/03 08:18:38;;;;;;;12.33;9.93;;;7.30;95.80;;;7.39;84.10;97993.91;4981289;28;20464;-68
2022/11/03 08:21:06;;;;;;;12.10;9.93;;;7.50;95.20;;;7.20;84.58;97996.22;4985077;28;20484;-68
2022/11/03 08:23:33;;;;;;;14.90;10.03;;;7.50;93.80;;;7.37;83.63;97996.78;4965089;28;20462;-68
2022/11/03 08:26:00;;;;;;;15.60;9.60;;;7.50;93.50;;;7.73;82.16;97992.28;4976018;28;20487;-67
2022/11/03 08:28:27;;;;;;;11.37;8.33;;;7.70;92.80;;;7.99;80.88;97988.06;4985336;28;20496;-68
2022/11/03 08:31:00;;;;;;;11.30;8.50;;;8.00;92.80;;;8.19;81.45;97978.22;4984070;28;20474;-66
2022/11/03 08:33:28;;;;;;;8.93;8.03;;;8.10;92.50;;;8.01;82.45;97926.81;4972453;28;20478;-67
2022/11/03 08:35:56;;;;;;;13.70;8.10;;;8.20;92.50;;;8.55;80.02;97979.00;4984697;28;20469;-67
2022/11/03 08:38:23;;;;;;;8.60;7.20;;;8.40;92.00;;;8.88;81.03;97975.53;4968451;28;20864;-68
2022/11/03 08:40:50;;;;;;;9.07;8.17;;;8.70;93.20;;;9.40;81.56;97976.78;4984404;28;21043;-68
2022/11/03 08:43:17;;;;;;;9.40;7.33;;;9.10;93.90;;;9.63;78.25;97971.78;4981553;28;20473;-67
2022/11/03 08:45:44;;;;;;;9.97;7.37;;;9.40;92.60;;;9.80;78.70;97959.69;4982594;28;20473;-67
2022/11/03 08:48:12;;;;;;;9.30;6.83;;;9.60;91.60;;;9.45;75.76;97947.31;4980446;28;20464;-67
2022/11/03 08:50:41;;;;;;;9.00;7.80;;;9.50;87.90;;;9.34;76.92;97946.09;4979168;28;20506;-67
2022/11/03 08:53:08;;;;;;;12.60;7.50;;;9.50;88.20;;;9.14;77.41;97946.09;4966898;28;20523;-68
2022/11/03 08:55:35;;;;;;;12.20;8.70;;;9.40;88.10;;;9.43;76.96;97931.34;4967215;28;20524;-67
2022/11/03 08:58:02;;;;;;;8.90;7.27;;;9.40;88.60;;;9.34;76.82;97935.31;4984916;28;20992;-67
2022/11/03 09:00:29;;;;;;;10.17;8.00;;;9.50;88.00;;;9.49;77.54;97916.22;4981750;28;20473;-67
2022/11/03 09:02:57;;;;;;;8.23;7.00;;;9.60;88.50;;;9.62;77.50;97916.16;4979643;28;20560;-67
2022/11/03 09:05:24;;;;;;;8.97;6.30;;;9.70;88.40;;;9.87;76.20;97912.75;4980621;28;21101;-68
2022/11/03 09:07:53;;;;;;;10.00;7.37;;;9.90;88.20;;;10.02;75.95;97903.56;4983637;28;20878;-67
2022/11/03 09:10:20;;;;;;;14.00;7.60;;;10.00;87.00;;;10.21;74.97;97902.63;4982679;28;20449;-67
2022/11/03 09:12:47;;;;;;;11.67;6.57;;;10.10;86.60;;;10.08;75.67;97894.59;4958730;28;20491;-67
2022/11/03 09:15:14;;;;;;;8.07;5.70;;;10.20;86.20;;;10.37;74.13;97896.94;4982744;28;20456;-68
2022/11/03 09:17:42;;;;;;;8.00;6.40;;;10.40;86.00;;;10.58;74.98;97890.41;4981685;28;21093;-67
2022/11/03 09:20:10;;;;;;;10.00;6.23;;;10.50;86.10;;;10.92;72.91;97880.16;4980886;28;20481;-67
2022/11/03 09:22:38;;;;;;;9.20;6.10;;;10.80;85.20;;;11.09;73.58;97875.03;4981761;28;20463;-67
2022/11/03 09:25:08;;;;;;;6.67;5.17;;;10.90;85.90;;;11.30;71.12;97871.09;4980960;28;20454;-69
2022/11/03 09:27:35;;;;;;;11.17;6.90;;;11.20;84.60;;;11.57;70.66;97854.53;4979639;28;20888;-69
2022/11/03 09:30:02;;;;;;;8.03;5.07;;;11.40;84.20;;;11.52;71.35;97861.69;4980696;28;20469;-68
2022/11/03 09:32:30;;;;;;;11.47;5.83;;;11.50;84.20;;;11.77;71.04;97862.44;4974358;28;20528;-68
2022/11/03 09:34:57;;;;;;;8.63;5.37;;;11.70;84.10;;;11.99;70.02;97851.13;4978358;28;20478;-68
2022/11/03 09:37:24;;;;;;;9.90;4.47;;;11.80;83.60;;;12.02;69.58;97839.88;4974717;28;20922;-68
2022/11/03 09:39:52;;;;;;;5.63;4.00;;;12.00;83.00;;;12.01;69.95;97826.53;4958453;28;20474;-67
2022/11/03 09:42:21;;;;;;;7.73;4.00;;;12.00;83.10;;;11.90;69.61;97825.41;4982293;28;20466;-67
2022/11/03 09:44:50;;;;;;;6.70;3.80;;;12.10;82.50;;;11.95;69.83;97830.16;4960231;28;20488;-68
2022/11/03 09:47:24;;;;;;;5.13;4.10;;;12.20;82.60;;;12.14;69.13;97826.38;4979877;28;20522;-69
2022/11/03 09:49:52;;;;;;;5.53;3.63;;;12.30;82.40;;;12.65;67.68;97826.00;4963101;28;20498;-68
2022/11/03 09:52:23;;;;;;;7.30;4.50;;;12.50;82.00;;;12.44;68.25;97830.13;4977274;28;20465;-68
2022/11/03 09:54:54;;;;;;;4.10;3.70;;;12.50;81.80;;;12.73;67.27;97832.97;4967141;28;20462;-68
2022/11/03 09:57:26;;;;;;;5.73;3.73;;;12.70;81.50;;;12.97;66.15;97839.25;4981853;28;20546;-68
2022/11/03 09:59:53;;;;;;;10.53;3.80;;;13.00;80.90;;;13.48;64.82;97832.50;4980879;28;20463;-67
2022/11/03 10:02:25;;;;;;;8.10;4.57;;;13.20;80.80;;;13.62;64.10;97833.09;4979671;28;20839;-67
2022/11/03 10:04:56;;;;;;;4.93;4.23;;;13.50;80.20;;;13.28;65.17;97822.84;4978178;28;20474;-69
2022/11/03 10:07:26;;;;;;;6.47;4.00;;;13.40;80.10;;;13.47;64.79;97812.69;4963813;28;21058;-67
2022/11/03 10:09:54;;;;;;;5.23;4.13;;;13.40;80.10;;;13.10;65.50;97815.66;4962997;28;21149;-68
2022/11/03 10:12:25;;;;;;;7.60;4.47;;;13.30;79.90;;;13.21;65.56;97811.31;4977694;28;20465;-68
2022/11/03 10:14:54;;;;;;;4.87;4.33;;;13.20;80.30;;;13.59;64.53;97808.06;4981079;28;20462;-67
2022/11/03 10:17:28;;;;;;;9.40;4.17;;;13.30;80.10;;;13.36;65.05;97800.78;4961693;28;20459;-69
2022/11/03 10:19:58;;;;;;;6.70;4.93;;;13.40;79.80;;;13.25;65.65;97796.19;4976571;28;20541;-69
2022/11/03 10:22:25;;;;;;;6.53;4.60;;;13.30;80.10;;;13.29;65.24;97786.50;4981219;28;20468;-69
2022/11/03 10:25:33;;;;;;;5.93;4.67;;;13.30;79.80;;;13.04;66.07;97777.56;4964493;28;20513;-69
2022/11/03 10:28:20;;;;;;;12.23;5.47;;;13.30;79.90;;;13.25;65.23;97767.16;4963776;28;21370;-68
2022/11/03 10:30:55;;;;;;;4.80;4.27;;;13.20;80.00;;;13.17;65.67;97772.97;4959956;28;20479;-69
2022/11/03 10:33:34;;;;;;;10.87;5.20;;;13.20;79.90;;;13.02;66.41;97771.56;4983804;28;20473;-68
2022/11/03 10:36:04;;;;;;;5.73;5.10;;;13.10;80.10;;;13.01;66.40;97764.50;4961005;28;20491;-69
2022/11/03 10:38:33;;;;;;;5.03;4.50;;;13.20;80.20;;;12.71;67.12;97780.88;4969718;28;20471;-68
2022/11/03 10:41:14;;;;;;;6.33;4.37;;;13.00;80.20;;;13.17;66.21;97779.19;4982271;28;20602;-67
2022/11/03 10:43:47;;;;;;;5.43;4.33;;;13.10;80.50;;;13.25;66.65;97771.78;4980344;28;20529;-68
2022/11/03 10:46:19;;;;;;;10.10;4.70;;;13.20;80.60;;;13.24;66.23;97768.22;4976842;28;20510;-68
2022/11/03 10:49:04;;;;;;;5.67;4.63;;;13.20;80.40;;;13.42;65.80;97769.13;4979735;28;20459;-69
2022/11/03 10:51:33;;;;;;;6.80;4.73;;;13.30;80.20;;;13.42;65.66;97763.69;4962990;28;20572;-69
2022/11/03 10:54:02;;;;;;;6.93;5.73;;;13.40;80.20;;;13.58;65.16;97762.16;4966129;28;20465;-69
2022/11/03 10:56:30;;;;;;;6.30;5.10;;;13.50;80.20;;;13.45;65.59;97741.56;4957774;28;20454;-69
2022/11/03 10:59:01;;;;;;;9.27;5.10;;;13.40;80.00;;;13.57;65.29;97750.50;4981274;28;20465;-68
2022/11/03 11:01:28;;;;;;;5.93;4.60;;;13.50;80.10;;;13.55;65.25;97754.50;4966707;28;20513;-68